sensor_id;sensor_type;location;lat;lon;timestamp;P1;durP1;ratioP1;P2;durP2;ratioP2
52468;SDS011;38381;53.688;10.776;2023-04-25T00:02:21;5.88;;;5.10;;
52468;SDS011;38381;53.688;10.776;2023-04-25T00:07:22;6.15;;;4.93;;
52468;SDS011;38381;53.688;10.776;2023-04-25T00:12:22;6.78;;;5.40;;
52468;SDS011;38381;53.688;10.776;2023-04-25T00:17:23;5.60;;;5.00;;
52468;SDS011;38381;53.688;10.776;2023-04-25T00:22:24;5.10;;;4.70;;
52468;SDS011;38381;53.688;10.776;2023-04-25T00:27:25;5.63;;;4.53;;
52468;SDS011;38381;53.688;10.776;2023-04-25T00:32:25;4.53;;;3.75;;
52468;SDS011;38381;53.688;10.776;2023-04-25T00:37:26;5.35;;;4.50;;
52468;SDS011;38381;53.688;10.776;2023-04-25T00:42:26;4.85;;;4.00;;
52468;SDS011;38381;53.688;10.776;2023-04-25T00:47:27;5.32;;;3.55;;
52468;SDS011;38381;53.688;10.776;2023-04-25T00:52:28;3.67;;;3.33;;
52468;SDS011;38381;53.688;10.776;2023-04-25T00:57:29;6.70;;;4.95;;
52468;SDS011;38381;53.688;10.776;2023-04-25T01:02:29;6.53;;;4.10;;
52468;SDS011;38381;53.688;10.776;2023-04-25T01:07:30;6.65;;;4.45;;
52468;SDS011;38381;53.688;10.776;2023-04-25T01:12:31;9.20;;;3.67;;
52468;SDS011;38381;53.688;10.776;2023-04-25T01:17:32;5.53;;;3.72;;
52468;SDS011;38381;53.688;10.776;2023-04-25T01:22:34;10.73;;;5.00;;
52468;SDS011;38381;53.688;10.776;2023-04-25T01:27:35;8.82;;;4.32;;
52468;SDS011;38381;53.688;10.776;2023-04-25T01:32:37;7.93;;;4.35;;
52468;SDS011;38381;53.688;10.776;2023-04-25T01:37:40;6.38;;;4.28;;
52468;SDS011;38381;53.688;10.776;2023-04-25T01:42:43;11.60;;;5.65;;
52468;SDS011;38381;53.688;10.776;2023-04-25T01:47:43;8.15;;;3.58;;
52468;SDS011;38381;53.688;10.776;2023-04-25T01:52:48;9.50;;;4.05;;
52468;SDS011;38381;53.688;10.776;2023-04-25T01:57:49;7.30;;;4.18;;
52468;SDS011;38381;53.688;10.776;2023-04-25T02:02:49;12.70;;;4.88;;
52468;SDS011;38381;53.688;10.776;2023-04-25T02:07:50;5.45;;;3.75;;
52468;SDS011;38381;53.688;10.776;2023-04-25T02:12:51;9.45;;;5.40;;
52468;SDS011;38381;53.688;10.776;2023-04-25T02:17:51;5.93;;;4.45;;
52468;SDS011;38381;53.688;10.776;2023-04-25T02:22:54;12.27;;;5.25;;
52468;SDS011;38381;53.688;10.776;2023-04-25T02:27:55;11.90;;;4.65;;
52468;SDS011;38381;53.688;10.776;2023-04-25T02:32:55;10.43;;;5.55;;
52468;SDS011;38381;53.688;10.776;2023-04-25T02:37:56;10.05;;;4.68;;
52468;SDS011;38381;53.688;10.776;2023-04-25T02:42:57;8.50;;;3.92;;
52468;SDS011;38381;53.688;10.776;2023-04-25T02:47:57;9.65;;;4.63;;
52468;SDS011;38381;53.688;10.776;2023-04-25T02:52:57;9.90;;;4.60;;
52468;SDS011;38381;53.688;10.776;2023-04-25T02:57:58;14.13;;;4.30;;
52468;SDS011;38381;53.688;10.776;2023-04-25T03:02:58;8.00;;;4.45;;
52468;SDS011;38381;53.688;10.776;2023-04-25T03:07:59;13.57;;;5.37;;
52468;SDS011;38381;53.688;10.776;2023-04-25T03:12:59;18.17;;;5.35;;
52468;SDS011;38381;53.688;10.776;2023-04-25T03:17:59;22.63;;;5.85;;
52468;SDS011;38381;53.688;10.776;2023-04-25T03:23:00;10.98;;;4.28;;
52468;SDS011;38381;53.688;10.776;2023-04-25T03:28:00;12.88;;;5.78;;
52468;SDS011;38381;53.688;10.776;2023-04-25T03:33:01;16.83;;;4.80;;
52468;SDS011;38381;53.688;10.776;2023-04-25T03:38:01;14.32;;;5.30;;
52468;SDS011;38381;53.688;10.776;2023-04-25T03:43:02;19.90;;;4.85;;
52468;SDS011;38381;53.688;10.776;2023-04-25T03:48:02;11.05;;;4.78;;
52468;SDS011;38381;53.688;10.776;2023-04-25T03:53:02;16.85;;;5.53;;
52468;SDS011;38381;53.688;10.776;2023-04-25T03:58:03;9.88;;;3.80;;
52468;SDS011;38381;53.688;10.776;2023-04-25T04:03:03;13.93;;;4.30;;
52468;SDS011;38381;53.688;10.776;2023-04-25T04:08:04;12.20;;;5.32;;
52468;SDS011;38381;53.688;10.776;2023-04-25T04:13:04;10.48;;;4.60;;
52468;SDS011;38381;53.688;10.776;2023-04-25T04:18:05;12.10;;;4.93;;
52468;SDS011;38381;53.688;10.776;2023-04-25T04:23:06;13.20;;;4.50;;
52468;SDS011;38381;53.688;10.776;2023-04-25T04:28:06;8.13;;;3.60;;
52468;SDS011;38381;53.688;10.776;2023-04-25T04:33:07;8.43;;;3.78;;
52468;SDS011;38381;53.688;10.776;2023-04-25T04:38:07;9.00;;;4.57;;
52468;SDS011;38381;53.688;10.776;2023-04-25T04:43:08;9.60;;;4.40;;
52468;SDS011;38381;53.688;10.776;2023-04-25T04:48:10;13.23;;;5.20;;
52468;SDS011;38381;53.688;10.776;2023-04-25T04:53:14;13.80;;;4.93;;
52468;SDS011;38381;53.688;10.776;2023-04-25T04:58:14;8.40;;;4.13;;
52468;SDS011;38381;53.688;10.776;2023-04-25T05:03:15;11.63;;;4.68;;
52468;SDS011;38381;53.688;10.776;2023-04-25T05:08:15;7.57;;;4.20;;
52468;SDS011;38381;53.688;10.776;2023-04-25T05:13:16;10.30;;;4.35;;
52468;SDS011;38381;53.688;10.776;2023-04-25T05:18:16;12.60;;;4.53;;
52468;SDS011;38381;53.688;10.776;2023-04-25T05:23:17;17.25;;;5.00;;
52468;SDS011;38381;53.688;10.776;2023-04-25T05:28:17;12.65;;;5.07;;
52468;SDS011;38381;53.688;10.776;2023-04-25T05:33:18;13.02;;;4.72;;
52468;SDS011;38381;53.688;10.776;2023-04-25T05:38:18;5.45;;;3.50;;
52468;SDS011;38381;53.688;10.776;2023-04-25T05:43:18;16.67;;;6.28;;
52468;SDS011;38381;53.688;10.776;2023-04-25T05:48:19;11.70;;;4.28;;
52468;SDS011;38381;53.688;10.776;2023-04-25T05:53:20;11.43;;;4.03;;
52468;SDS011;38381;53.688;10.776;2023-04-25T05:58:21;5.65;;;3.60;;
52468;SDS011;38381;53.688;10.776;2023-04-25T06:03:22;7.25;;;3.30;;
52468;SDS011;38381;53.688;10.776;2023-04-25T06:08:22;7.30;;;3.97;;
52468;SDS011;38381;53.688;10.776;2023-04-25T06:13:23;10.60;;;3.67;;
52468;SDS011;38381;53.688;10.776;2023-04-25T06:18:23;8.10;;;3.60;;
52468;SDS011;38381;53.688;10.776;2023-04-25T06:23:24;6.85;;;3.50;;
52468;SDS011;38381;53.688;10.776;2023-04-25T06:28:24;4.95;;;4.50;;
52468;SDS011;38381;53.688;10.776;2023-04-25T06:33:24;9.95;;;3.17;;
52468;SDS011;38381;53.688;10.776;2023-04-25T06:38:25;6.63;;;3.83;;
52468;SDS011;38381;53.688;10.776;2023-04-25T06:43:25;17.42;;;4.60;;
52468;SDS011;38381;53.688;10.776;2023-04-25T06:48:26;10.00;;;3.30;;
52468;SDS011;38381;53.688;10.776;2023-04-25T06:53:27;10.07;;;5.07;;
52468;SDS011;38381;53.688;10.776;2023-04-25T06:58:28;6.30;;;3.67;;
52468;SDS011;38381;53.688;10.776;2023-04-25T07:03:28;7.85;;;3.42;;
52468;SDS011;38381;53.688;10.776;2023-04-25T07:08:29;7.38;;;4.32;;
52468;SDS011;38381;53.688;10.776;2023-04-25T07:13:29;6.55;;;2.90;;
52468;SDS011;38381;53.688;10.776;2023-04-25T07:18:30;5.65;;;2.85;;
52468;SDS011;38381;53.688;10.776;2023-04-25T07:23:30;9.05;;;3.13;;
52468;SDS011;38381;53.688;10.776;2023-04-25T07:28:31;6.53;;;3.47;;
52468;SDS011;38381;53.688;10.776;2023-04-25T07:33:31;6.43;;;3.60;;
52468;SDS011;38381;53.688;10.776;2023-04-25T07:38:33;6.60;;;3.07;;
52468;SDS011;38381;53.688;10.776;2023-04-25T07:43:33;4.97;;;3.38;;
52468;SDS011;38381;53.688;10.776;2023-04-25T07:48:34;9.35;;;3.55;;
52468;SDS011;38381;53.688;10.776;2023-04-25T07:53:34;8.73;;;3.33;;
52468;SDS011;38381;53.688;10.776;2023-04-25T07:58:37;3.75;;;2.92;;
52468;SDS011;38381;53.688;10.776;2023-04-25T08:03:37;4.15;;;2.83;;
52468;SDS011;38381;53.688;10.776;2023-04-25T08:08:38;8.07;;;3.50;;
52468;SDS011;38381;53.688;10.776;2023-04-25T08:13:38;4.63;;;2.50;;
52468;SDS011;38381;53.688;10.776;2023-04-25T08:18:39;4.15;;;3.13;;
52468;SDS011;38381;53.688;10.776;2023-04-25T08:23:39;3.53;;;2.40;;
52468;SDS011;38381;53.688;10.776;2023-04-25T08:28:39;7.93;;;3.60;;
52468;SDS011;38381;53.688;10.776;2023-04-25T08:33:40;10.30;;;3.10;;
52468;SDS011;38381;53.688;10.776;2023-04-25T08:38:40;11.43;;;3.47;;
52468;SDS011;38381;53.688;10.776;2023-04-25T08:43:42;28.40;;;8.37;;
52468;SDS011;38381;53.688;10.776;2023-04-25T08:48:44;9.10;;;3.55;;
52468;SDS011;38381;53.688;10.776;2023-04-25T08:53:45;11.40;;;3.03;;
52468;SDS011;38381;53.688;10.776;2023-04-25T08:58:49;3.55;;;2.85;;
52468;SDS011;38381;53.688;10.776;2023-04-25T09:03:52;4.22;;;1.92;;
52468;SDS011;38381;53.688;10.776;2023-04-25T09:08:53;4.78;;;3.08;;
52468;SDS011;38381;53.688;10.776;2023-04-25T09:14:09;6.30;;;2.40;;
52468;SDS011;38381;53.688;10.776;2023-04-25T09:19:22;10.18;;;3.33;;
52468;SDS011;38381;53.688;10.776;2023-04-25T09:29:32;5.10;;;2.47;;
52468;SDS011;38381;53.688;10.776;2023-04-25T09:34:38;7.45;;;2.88;;
52468;SDS011;38381;53.688;10.776;2023-04-25T09:39:48;5.35;;;2.38;;
52468;SDS011;38381;53.688;10.776;2023-04-25T09:44:53;3.70;;;2.22;;
52468;SDS011;38381;53.688;10.776;2023-04-25T09:49:55;4.78;;;2.45;;
52468;SDS011;38381;53.688;10.776;2023-04-25T09:54:55;6.07;;;3.00;;
52468;SDS011;38381;53.688;10.776;2023-04-25T09:59:56;7.85;;;2.67;;
52468;SDS011;38381;53.688;10.776;2023-04-25T10:04:56;5.15;;;2.33;;
52468;SDS011;38381;53.688;10.776;2023-04-25T10:10:02;8.80;;;2.47;;
52468;SDS011;38381;53.688;10.776;2023-04-25T10:15:04;2.60;;;1.83;;
52468;SDS011;38381;53.688;10.776;2023-04-25T10:20:05;11.20;;;3.05;;
52468;SDS011;38381;53.688;10.776;2023-04-25T10:25:11;5.32;;;2.47;;
52468;SDS011;38381;53.688;10.776;2023-04-25T10:30:13;4.67;;;2.17;;
52468;SDS011;38381;53.688;10.776;2023-04-25T10:35:19;4.67;;;1.93;;
52468;SDS011;38381;53.688;10.776;2023-04-25T10:40:24;5.18;;;1.95;;
52468;SDS011;38381;53.688;10.776;2023-04-25T10:45:25;5.13;;;3.15;;
52468;SDS011;38381;53.688;10.776;2023-04-25T10:50:31;2.65;;;1.75;;
52468;SDS011;38381;53.688;10.776;2023-04-25T10:55:49;3.47;;;1.83;;
52468;SDS011;38381;53.688;10.776;2023-04-25T11:00:51;4.85;;;1.90;;
52468;SDS011;38381;53.688;10.776;2023-04-25T11:05:53;5.90;;;2.13;;
52468;SDS011;38381;53.688;10.776;2023-04-25T11:10:54;2.10;;;1.37;;
52468;SDS011;38381;53.688;10.776;2023-04-25T11:15:55;4.45;;;2.17;;
52468;SDS011;38381;53.688;10.776;2023-04-25T11:20:55;4.70;;;1.90;;
52468;SDS011;38381;53.688;10.776;2023-04-25T11:25:55;3.28;;;2.25;;
52468;SDS011;38381;53.688;10.776;2023-04-25T11:30:56;3.80;;;1.83;;
52468;SDS011;38381;53.688;10.776;2023-04-25T11:35:57;3.05;;;2.03;;
52468;SDS011;38381;53.688;10.776;2023-04-25T11:40:58;6.13;;;2.50;;
52468;SDS011;38381;53.688;10.776;2023-04-25T11:45:58;2.85;;;2.30;;
52468;SDS011;38381;53.688;10.776;2023-04-25T11:51:06;4.00;;;1.60;;
52468;SDS011;38381;53.688;10.776;2023-04-25T11:56:10;3.47;;;1.67;;
52468;SDS011;38381;53.688;10.776;2023-04-25T12:01:11;6.00;;;2.00;;
52468;SDS011;38381;53.688;10.776;2023-04-25T12:06:15;3.17;;;1.60;;
52468;SDS011;38381;53.688;10.776;2023-04-25T12:11:20;3.17;;;2.25;;
52468;SDS011;38381;53.688;10.776;2023-04-25T12:16:21;2.85;;;1.95;;
52468;SDS011;38381;53.688;10.776;2023-04-25T12:21:22;3.33;;;1.50;;
52468;SDS011;38381;53.688;10.776;2023-04-25T12:26:22;4.57;;;1.83;;
52468;SDS011;38381;53.688;10.776;2023-04-25T12:31:23;4.25;;;2.85;;
52468;SDS011;38381;53.688;10.776;2023-04-25T12:36:23;5.35;;;2.35;;
52468;SDS011;38381;53.688;10.776;2023-04-25T12:41:24;2.95;;;1.60;;
52468;SDS011;38381;53.688;10.776;2023-04-25T12:46:24;7.03;;;2.72;;
52468;SDS011;38381;53.688;10.776;2023-04-25T12:51:25;3.47;;;1.95;;
52468;SDS011;38381;53.688;10.776;2023-04-25T12:56:28;1.60;;;1.42;;
52468;SDS011;38381;53.688;10.776;2023-04-25T13:01:29;7.18;;;1.67;;
52468;SDS011;38381;53.688;10.776;2023-04-25T13:06:30;5.60;;;1.88;;
52468;SDS011;38381;53.688;10.776;2023-04-25T13:11:31;7.05;;;2.72;;
52468;SDS011;38381;53.688;10.776;2023-04-25T13:16:31;2.97;;;1.95;;
52468;SDS011;38381;53.688;10.776;2023-04-25T13:21:31;3.47;;;1.90;;
52468;SDS011;38381;53.688;10.776;2023-04-25T13:26:32;2.67;;;2.45;;
52468;SDS011;38381;53.688;10.776;2023-04-25T13:31:33;13.00;;;3.28;;
52468;SDS011;38381;53.688;10.776;2023-04-25T13:36:33;2.60;;;1.67;;
52468;SDS011;38381;53.688;10.776;2023-04-25T13:41:33;4.43;;;2.15;;
52468;SDS011;38381;53.688;10.776;2023-04-25T13:46:34;4.32;;;2.00;;
52468;SDS011;38381;53.688;10.776;2023-04-25T13:51:35;5.80;;;2.28;;
52468;SDS011;38381;53.688;10.776;2023-04-25T13:56:35;2.33;;;1.33;;
52468;SDS011;38381;53.688;10.776;2023-04-25T14:01:36;4.35;;;1.95;;
52468;SDS011;38381;53.688;10.776;2023-04-25T14:06:36;4.25;;;1.63;;
52468;SDS011;38381;53.688;10.776;2023-04-25T14:11:37;3.22;;;1.60;;
52468;SDS011;38381;53.688;10.776;2023-04-25T14:16:37;4.38;;;2.92;;
52468;SDS011;38381;53.688;10.776;2023-04-25T14:21:38;2.92;;;2.22;;
52468;SDS011;38381;53.688;10.776;2023-04-25T14:26:38;3.45;;;1.63;;
52468;SDS011;38381;53.688;10.776;2023-04-25T14:31:39;3.58;;;1.90;;
52468;SDS011;38381;53.688;10.776;2023-04-25T14:36:40;5.90;;;2.25;;
52468;SDS011;38381;53.688;10.776;2023-04-25T14:41:42;5.68;;;2.42;;
52468;SDS011;38381;53.688;10.776;2023-04-25T14:46:42;6.72;;;2.28;;
52468;SDS011;38381;53.688;10.776;2023-04-25T14:51:42;3.97;;;1.98;;
52468;SDS011;38381;53.688;10.776;2023-04-25T14:56:43;3.67;;;2.00;;
52468;SDS011;38381;53.688;10.776;2023-04-25T15:01:43;2.92;;;2.17;;
52468;SDS011;38381;53.688;10.776;2023-04-25T15:06:44;4.18;;;2.00;;
52468;SDS011;38381;53.688;10.776;2023-04-25T15:11:44;4.55;;;2.40;;
52468;SDS011;38381;53.688;10.776;2023-04-25T15:16:45;2.90;;;1.73;;
52468;SDS011;38381;53.688;10.776;2023-04-25T15:21:46;2.78;;;2.42;;
52468;SDS011;38381;53.688;10.776;2023-04-25T15:26:46;7.07;;;3.40;;
52468;SDS011;38381;53.688;10.776;2023-04-25T15:31:47;7.15;;;2.40;;
52468;SDS011;38381;53.688;10.776;2023-04-25T15:36:47;3.78;;;1.80;;
52468;SDS011;38381;53.688;10.776;2023-04-25T15:41:48;2.83;;;2.35;;
52468;SDS011;38381;53.688;10.776;2023-04-25T15:46:49;2.33;;;1.90;;
52468;SDS011;38381;53.688;10.776;2023-04-25T15:51:49;5.05;;;1.80;;
52468;SDS011;38381;53.688;10.776;2023-04-25T15:56:50;2.10;;;1.80;;
52468;SDS011;38381;53.688;10.776;2023-04-25T16:01:50;3.90;;;2.17;;
52468;SDS011;38381;53.688;10.776;2023-04-25T16:06:51;5.32;;;1.83;;
52468;SDS011;38381;53.688;10.776;2023-04-25T16:11:52;4.30;;;2.38;;
52468;SDS011;38381;53.688;10.776;2023-04-25T16:16:52;3.70;;;2.33;;
52468;SDS011;38381;53.688;10.776;2023-04-25T16:21:53;6.28;;;2.13;;
52468;SDS011;38381;53.688;10.776;2023-04-25T16:26:54;2.45;;;1.90;;
52468;SDS011;38381;53.688;10.776;2023-04-25T16:31:54;6.07;;;2.78;;
52468;SDS011;38381;53.688;10.776;2023-04-25T16:36:55;3.85;;;2.00;;
52468;SDS011;38381;53.688;10.776;2023-04-25T16:41:56;9.57;;;2.75;;
52468;SDS011;38381;53.688;10.776;2023-04-25T16:46:56;4.97;;;2.22;;
52468;SDS011;38381;53.688;10.776;2023-04-25T16:51:57;3.58;;;2.15;;
52468;SDS011;38381;53.688;10.776;2023-04-25T16:56:57;5.53;;;1.95;;
52468;SDS011;38381;53.688;10.776;2023-04-25T17:01:58;6.13;;;2.63;;
52468;SDS011;38381;53.688;10.776;2023-04-25T17:06:59;6.43;;;2.47;;
52468;SDS011;38381;53.688;10.776;2023-04-25T17:11:59;3.20;;;2.10;;
52468;SDS011;38381;53.688;10.776;2023-04-25T17:17:01;3.10;;;2.10;;
52468;SDS011;38381;53.688;10.776;2023-04-25T17:22:02;4.90;;;2.58;;
52468;SDS011;38381;53.688;10.776;2023-04-25T17:27:03;2.38;;;1.83;;
52468;SDS011;38381;53.688;10.776;2023-04-25T17:32:03;3.95;;;2.53;;
52468;SDS011;38381;53.688;10.776;2023-04-25T17:37:04;5.85;;;2.03;;
52468;SDS011;38381;53.688;10.776;2023-04-25T17:42:05;4.63;;;2.38;;
52468;SDS011;38381;53.688;10.776;2023-04-25T17:47:06;7.00;;;2.35;;
52468;SDS011;38381;53.688;10.776;2023-04-25T17:52:06;3.55;;;2.97;;
52468;SDS011;38381;53.688;10.776;2023-04-25T17:57:07;5.00;;;2.45;;
52468;SDS011;38381;53.688;10.776;2023-04-25T18:02:08;3.28;;;1.73;;
52468;SDS011;38381;53.688;10.776;2023-04-25T18:07:09;6.83;;;2.47;;
52468;SDS011;38381;53.688;10.776;2023-04-25T18:12:10;2.33;;;1.83;;
52468;SDS011;38381;53.688;10.776;2023-04-25T18:17:10;3.90;;;2.22;;
52468;SDS011;38381;53.688;10.776;2023-04-25T18:22:11;4.95;;;2.60;;
52468;SDS011;38381;53.688;10.776;2023-04-25T18:27:12;2.83;;;1.77;;
52468;SDS011;38381;53.688;10.776;2023-04-25T18:32:12;4.78;;;2.47;;
52468;SDS011;38381;53.688;10.776;2023-04-25T18:37:13;3.80;;;2.47;;
52468;SDS011;38381;53.688;10.776;2023-04-25T18:42:13;4.82;;;2.47;;
52468;SDS011;38381;53.688;10.776;2023-04-25T18:47:14;3.80;;;2.20;;
52468;SDS011;38381;53.688;10.776;2023-04-25T18:52:14;6.57;;;2.58;;
52468;SDS011;38381;53.688;10.776;2023-04-25T18:57:15;8.65;;;4.47;;
52468;SDS011;38381;53.688;10.776;2023-04-25T19:02:16;5.65;;;2.38;;
52468;SDS011;38381;53.688;10.776;2023-04-25T19:07:17;4.95;;;1.92;;
52468;SDS011;38381;53.688;10.776;2023-04-25T19:12:19;4.05;;;2.00;;
52468;SDS011;38381;53.688;10.776;2023-04-25T19:17:21;7.15;;;2.60;;
52468;SDS011;38381;53.688;10.776;2023-04-25T19:22:22;3.92;;;2.40;;
52468;SDS011;38381;53.688;10.776;2023-04-25T19:27:22;6.72;;;3.33;;
52468;SDS011;38381;53.688;10.776;2023-04-25T19:32:23;2.07;;;1.60;;
52468;SDS011;38381;53.688;10.776;2023-04-25T19:37:24;3.72;;;2.17;;
52468;SDS011;38381;53.688;10.776;2023-04-25T19:42:25;4.32;;;2.90;;
52468;SDS011;38381;53.688;10.776;2023-04-25T19:47:25;6.15;;;2.75;;
52468;SDS011;38381;53.688;10.776;2023-04-25T19:52:27;4.35;;;2.70;;
52468;SDS011;38381;53.688;10.776;2023-04-25T19:57:27;6.18;;;2.05;;
52468;SDS011;38381;53.688;10.776;2023-04-25T20:02:32;3.78;;;2.10;;
52468;SDS011;38381;53.688;10.776;2023-04-25T20:07:32;6.50;;;2.72;;
52468;SDS011;38381;53.688;10.776;2023-04-25T20:12:33;5.57;;;2.72;;
52468;SDS011;38381;53.688;10.776;2023-04-25T20:17:39;8.02;;;2.67;;
52468;SDS011;38381;53.688;10.776;2023-04-25T20:22:44;5.00;;;2.08;;
52468;SDS011;38381;53.688;10.776;2023-04-25T20:27:44;2.47;;;2.17;;
52468;SDS011;38381;53.688;10.776;2023-04-25T20:32:45;7.10;;;2.72;;
52468;SDS011;38381;53.688;10.776;2023-04-25T20:37:46;6.35;;;3.75;;
52468;SDS011;38381;53.688;10.776;2023-04-25T20:42:46;6.45;;;2.47;;
52468;SDS011;38381;53.688;10.776;2023-04-25T20:47:46;7.25;;;2.95;;
52468;SDS011;38381;53.688;10.776;2023-04-25T20:52:47;6.78;;;3.45;;
52468;SDS011;38381;53.688;10.776;2023-04-25T20:57:48;11.13;;;3.17;;
52468;SDS011;38381;53.688;10.776;2023-04-25T21:02:48;10.02;;;3.30;;
52468;SDS011;38381;53.688;10.776;2023-04-25T21:07:50;3.72;;;2.47;;
52468;SDS011;38381;53.688;10.776;2023-04-25T21:12:53;5.72;;;3.20;;
52468;SDS011;38381;53.688;10.776;2023-04-25T21:17:55;9.67;;;3.23;;
52468;SDS011;38381;53.688;10.776;2023-04-25T21:22:55;4.22;;;3.08;;
52468;SDS011;38381;53.688;10.776;2023-04-25T21:27:56;4.05;;;2.25;;
52468;SDS011;38381;53.688;10.776;2023-04-25T21:32:57;9.98;;;3.42;;
52468;SDS011;38381;53.688;10.776;2023-04-25T21:37:58;6.80;;;2.72;;
52468;SDS011;38381;53.688;10.776;2023-04-25T21:42:59;6.45;;;3.88;;
52468;SDS011;38381;53.688;10.776;2023-04-25T21:48:00;2.90;;;2.33;;
52468;SDS011;38381;53.688;10.776;2023-04-25T21:53:00;4.75;;;2.90;;
52468;SDS011;38381;53.688;10.776;2023-04-25T21:58:01;7.40;;;2.78;;
52468;SDS011;38381;53.688;10.776;2023-04-25T22:03:01;3.60;;;2.70;;
52468;SDS011;38381;53.688;10.776;2023-04-25T22:08:01;3.53;;;2.63;;
52468;SDS011;38381;53.688;10.776;2023-04-25T22:13:02;3.72;;;2.33;;
52468;SDS011;38381;53.688;10.776;2023-04-25T22:18:04;3.95;;;2.90;;
52468;SDS011;38381;53.688;10.776;2023-04-25T22:23:05;6.85;;;3.33;;
52468;SDS011;38381;53.688;10.776;2023-04-25T22:28:05;4.97;;;2.43;;
52468;SDS011;38381;53.688;10.776;2023-04-25T22:33:05;19.45;;;3.42;;
52468;SDS011;38381;53.688;10.776;2023-04-25T22:38:06;5.40;;;3.05;;
52468;SDS011;38381;53.688;10.776;2023-04-25T22:43:06;3.70;;;3.30;;
52468;SDS011;38381;53.688;10.776;2023-04-25T22:48:07;5.25;;;2.47;;
52468;SDS011;38381;53.688;10.776;2023-04-25T22:53:08;10.48;;;3.22;;
52468;SDS011;38381;53.688;10.776;2023-04-25T22:58:11;5.93;;;2.63;;
52468;SDS011;38381;53.688;10.776;2023-04-25T23:03:12;5.90;;;3.45;;
52468;SDS011;38381;53.688;10.776;2023-04-25T23:08:13;3.17;;;2.75;;
52468;SDS011;38381;53.688;10.776;2023-04-25T23:13:16;5.82;;;2.60;;
52468;SDS011;38381;53.688;10.776;2023-04-25T23:18:16;8.40;;;2.80;;
52468;SDS011;38381;53.688;10.776;2023-04-25T23:23:17;3.63;;;2.58;;
52468;SDS011;38381;53.688;10.776;2023-04-25T23:28:17;9.70;;;3.40;;
52468;SDS011;38381;53.688;10.776;2023-04-25T23:33:18;5.45;;;2.22;;
52468;SDS011;38381;53.688;10.776;2023-04-25T23:38:18;6.40;;;2.40;;
52468;SDS011;38381;53.688;10.776;2023-04-25T23:43:19;5.22;;;2.45;;
52468;SDS011;38381;53.688;10.776;2023-04-25T23:48:20;5.35;;;2.30;;
52468;SDS011;38381;53.688;10.776;2023-04-25T23:53:20;5.38;;;3.58;;
52468;SDS011;38381;53.688;10.776;2023-04-25T23:58:21;6.28;;;3.05;;
